createdAt,value
2023-03-17T00:03:41.835Z,19.48
2023-03-17T00:08:44.367Z,21.88
2023-03-17T00:13:45.991Z,17.58
2023-03-17T00:18:50.051Z,19.77
2023-03-17T00:23:51.780Z,18.35
2023-03-17T00:28:54.257Z,20.35
2023-03-17T00:33:57.450Z,15.48
2023-03-17T00:38:59.698Z,17.23
2023-03-17T00:44:01.301Z,16.05
2023-03-17T00:49:14.177Z,15.45
2023-03-17T00:54:16.515Z,14.73
2023-03-17T00:59:23.917Z,18.27
2023-03-17T01:04:26.993Z,15.45
2023-03-17T01:09:29.147Z,17.75
2023-03-17T01:14:30.630Z,18.35
2023-03-17T01:19:33.519Z,17.58
2023-03-17T01:24:35.154Z,15.98
2023-03-17T01:29:36.720Z,19.98
2023-03-17T01:34:39.540Z,19.90
2023-03-17T01:39:41.086Z,16.80
2023-03-17T01:44:57.394Z,18.60
2023-03-17T01:50:06.023Z,15.80
2023-03-17T01:55:12.061Z,20.30
2023-03-17T02:00:16.601Z,16.95
2023-03-17T02:05:22.272Z,21.77
2023-03-17T02:10:25.815Z,18.88
2023-03-17T02:15:37.334Z,19.73
2023-03-17T02:21:23.285Z,22.48
2023-03-17T02:26:28.636Z,17.40
2023-03-17T02:31:30.314Z,19.13
2023-03-17T02:36:31.885Z,19.90
2023-03-17T02:41:35.531Z,20.67
2023-03-17T02:46:37.126Z,20.75
2023-03-17T02:51:38.725Z,20.48
2023-03-17T02:56:41.647Z,20.70
2023-03-17T03:01:43.341Z,14.98
2023-03-17T03:06:45.367Z,16.67
2023-03-17T03:11:48.394Z,20.92
2023-03-17T03:16:49.958Z,17.60
2023-03-17T03:21:51.528Z,21.90
2023-03-17T03:26:54.454Z,21.48
2023-03-17T03:31:55.981Z,19.85
2023-03-17T03:36:57.534Z,21.65
2023-03-17T03:42:00.390Z,20.65
2023-03-17T03:47:02.035Z,20.00
2023-03-17T03:52:03.957Z,20.25
2023-03-17T03:57:06.768Z,19.45
2023-03-17T04:02:09.632Z,20.13
2023-03-17T04:07:11.496Z,19.35
2023-03-17T04:12:14.509Z,20.90
2023-03-17T04:17:15.968Z,23.40
2023-03-17T04:22:17.650Z,22.40
2023-03-17T04:27:20.686Z,21.20
2023-03-17T04:32:22.231Z,23.23
2023-03-17T04:37:23.994Z,21.80
2023-03-17T04:42:26.926Z,21.05
2023-03-17T04:47:28.477Z,21.55
2023-03-17T04:52:30.208Z,23.58
2023-03-17T04:57:33.040Z,22.27
2023-03-17T05:02:34.943Z,19.15
2023-03-17T05:07:36.615Z,19.13
2023-03-17T05:12:39.412Z,21.13
2023-03-17T05:17:41.053Z,21.13
2023-03-17T05:22:42.792Z,22.58
2023-03-17T05:27:45.621Z,22.15
2023-03-17T05:32:47.225Z,24.20
2023-03-17T05:37:48.807Z,23.02
2023-03-17T05:42:52.105Z,27.55
2023-03-17T05:47:53.761Z,23.60
2023-03-17T05:52:55.260Z,20.40
2023-03-17T05:57:58.177Z,26.10
2023-03-17T06:02:59.731Z,31.17
2023-03-17T06:08:01.685Z,34.55
2023-03-17T06:13:04.639Z,27.75
2023-03-17T06:18:06.185Z,34.15
2023-03-17T06:23:07.769Z,24.00
2023-03-17T06:28:10.650Z,22.10
2023-03-17T06:33:12.546Z,21.15
2023-03-17T06:38:14.129Z,17.75
2023-03-17T06:43:17.306Z,17.10
2023-03-17T06:48:19.048Z,21.70
2023-03-17T06:53:20.974Z,17.60
2023-03-17T06:58:24.089Z,14.40
2023-03-17T07:03:26.805Z,15.50
2023-03-17T07:08:28.330Z,13.82
2023-03-17T07:13:31.181Z,14.63
2023-03-17T07:18:32.783Z,14.88
2023-03-17T07:23:34.371Z,21.98
2023-03-17T07:28:37.284Z,18.35
2023-03-17T07:33:38.847Z,18.25
2023-03-17T07:38:40.511Z,15.52
2023-03-17T07:43:43.304Z,16.50
2023-03-17T07:48:44.893Z,14.80
2023-03-17T07:53:46.781Z,15.38
2023-03-17T07:58:49.706Z,15.50
2023-03-17T08:03:51.366Z,13.70
2023-03-17T08:08:53.183Z,36.20
2023-03-17T08:13:56.173Z,15.00
2023-03-17T08:18:58.038Z,15.45
2023-03-17T08:23:59.742Z,14.93
2023-03-17T08:29:02.788Z,14.25
2023-03-17T08:34:04.465Z,14.68
2023-03-17T08:39:06.021Z,14.93
2023-03-17T08:44:09.388Z,13.77
2023-03-17T08:49:11.518Z,15.93
2023-03-17T08:54:13.170Z,15.77
2023-03-17T08:59:17.010Z,14.55
2023-03-17T09:04:18.726Z,19.30
2023-03-17T09:09:20.317Z,16.67
2023-03-17T09:14:23.186Z,14.65
2023-03-17T09:19:24.995Z,14.07
2023-03-17T09:24:26.469Z,15.90
2023-03-17T09:29:29.303Z,13.57
2023-03-17T09:34:30.970Z,15.70
2023-03-17T09:39:32.694Z,13.85
2023-03-17T09:44:45.899Z,15.05
2023-03-17T09:49:48.982Z,13.32
2023-03-17T09:54:50.617Z,13.73
2023-03-17T09:59:59.904Z,16.25
2023-03-17T10:05:10.966Z,13.45
2023-03-17T10:10:15.443Z,22.17
2023-03-17T10:15:25.240Z,15.55
2023-03-17T10:20:28.696Z,14.07
2023-03-17T10:25:32.561Z,15.95
2023-03-17T10:30:35.741Z,15.68
2023-03-17T10:35:38.434Z,15.00
2023-03-17T10:40:40.040Z,16.45
2023-03-17T10:45:54.921Z,14.90
2023-03-17T10:50:58.006Z,15.98
2023-03-17T10:56:07.070Z,14.80
2023-03-17T11:01:17.459Z,13.70
2023-03-17T11:06:26.414Z,13.52
2023-03-17T11:11:29.744Z,12.70
2023-03-17T11:16:36.952Z,14.00
2023-03-17T11:21:47.880Z,12.40
2023-03-17T11:26:57.791Z,12.15
2023-03-17T11:32:13.225Z,14.77
2023-03-17T11:37:29.680Z,12.55
2023-03-17T11:42:43.056Z,13.18
2023-03-17T11:48:00.012Z,13.13
2023-03-17T11:53:20.573Z,12.07
2023-03-17T11:58:28.865Z,13.93
2023-03-17T12:03:39.680Z,16.20
2023-03-17T12:08:45.305Z,10.52
2023-03-17T12:13:51.437Z,12.35
2023-03-17T12:19:01.679Z,11.85
2023-03-17T12:24:11.057Z,10.43
2023-03-17T12:29:16.734Z,11.93
2023-03-17T12:34:26.737Z,10.73
2023-03-17T12:39:32.158Z,13.38
2023-03-17T12:44:45.582Z,12.02
2023-03-17T12:50:19.046Z,15.18
2023-03-17T12:55:24.638Z,12.93
2023-03-17T13:00:28.855Z,51.97
2023-03-17T13:05:33.155Z,15.73
2023-03-17T13:10:41.359Z,13.82
2023-03-17T13:15:59.984Z,12.90
2023-03-17T13:21:15.122Z,11.40
2023-03-17T13:26:19.356Z,11.45
2023-03-17T13:31:36.199Z,13.10
2023-03-17T13:36:45.545Z,10.95
2023-03-17T13:42:18.070Z,17.45
2023-03-17T13:47:32.337Z,9.75
2023-03-17T13:52:40.894Z,8.27
2023-03-17T13:57:42.592Z,11.23
2023-03-17T14:02:45.208Z,11.25
2023-03-17T14:07:54.288Z,13.57
2023-03-17T14:13:02.940Z,11.77
2023-03-17T14:18:09.260Z,11.80
2023-03-17T14:23:12.132Z,14.25
2023-03-17T14:28:17.274Z,11.32
2023-03-17T14:33:23.707Z,15.27
2023-03-17T14:38:32.004Z,11.90
2023-03-17T14:43:35.046Z,12.80
2023-03-17T14:48:39.918Z,14.38
2023-03-17T14:53:44.004Z,12.48
2023-03-17T14:58:46.392Z,12.98
2023-03-17T15:03:56.411Z,13.80
2023-03-17T15:09:01.755Z,14.02
2023-03-17T15:14:05.957Z,22.17
2023-03-17T15:19:16.994Z,13.32
2023-03-17T15:24:40.550Z,13.48
2023-03-17T15:29:42.269Z,13.60
2023-03-17T15:34:43.757Z,13.93
2023-03-17T15:39:47.553Z,12.35
2023-03-17T15:44:49.075Z,13.30
2023-03-17T15:49:50.798Z,14.30
2023-03-17T15:54:54.950Z,13.10
2023-03-17T15:59:56.462Z,16.17
2023-03-17T16:04:58.878Z,17.00
2023-03-17T16:10:01.824Z,13.75
2023-03-17T16:15:07.745Z,15.57
2023-03-17T16:20:26.471Z,33.38
2023-03-17T16:25:31.847Z,21.40
2023-03-17T16:30:34.619Z,23.48
2023-03-17T16:35:36.410Z,40.00
2023-03-17T16:40:40.226Z,20.40
2023-03-17T16:45:41.730Z,16.23
2023-03-17T16:50:43.917Z,14.75
2023-03-17T16:55:47.058Z,16.38
2023-03-17T17:00:50.858Z,18.45
2023-03-17T17:05:52.382Z,21.90
2023-03-17T17:10:56.277Z,20.17
2023-03-17T17:15:57.881Z,37.80
2023-03-17T17:20:59.397Z,31.10
2023-03-17T17:26:02.377Z,26.23
2023-03-17T17:31:03.931Z,26.10
2023-03-17T17:36:07.906Z,23.70
2023-03-17T17:41:11.769Z,27.65
2023-03-17T17:46:16.690Z,22.58
2023-03-17T17:51:18.274Z,25.05
2023-03-17T17:56:21.266Z,20.67
2023-03-17T18:01:23.421Z,17.55
2023-03-17T18:06:25.054Z,28.17
2023-03-17T18:11:28.001Z,38.80
2023-03-17T18:16:29.516Z,45.08
2023-03-17T18:21:31.256Z,44.38
2023-03-17T18:26:34.465Z,26.92
2023-03-17T18:31:40.121Z,21.33
2023-03-17T18:36:41.831Z,24.00
2023-03-17T18:41:45.470Z,17.42
2023-03-17T18:46:46.999Z,14.77
2023-03-17T18:51:48.540Z,16.45
2023-03-17T18:56:51.360Z,19.13
2023-03-17T19:01:52.886Z,18.10
2023-03-17T19:06:54.388Z,23.05
2023-03-17T19:11:57.320Z,24.17
2023-03-17T19:16:58.983Z,24.25
2023-03-17T19:22:00.835Z,21.98
2023-03-17T19:27:04.088Z,22.02
2023-03-17T19:32:05.593Z,28.02
2023-03-17T19:37:07.275Z,19.60
2023-03-17T19:42:10.165Z,13.70
2023-03-17T19:47:11.694Z,14.27
2023-03-17T19:52:13.261Z,14.60
2023-03-17T19:57:17.079Z,11.32
2023-03-17T20:02:18.658Z,11.32
2023-03-17T20:07:20.384Z,11.98
2023-03-17T20:12:23.291Z,12.95
2023-03-17T20:17:24.842Z,11.23
2023-03-17T20:22:26.619Z,11.25
2023-03-17T20:27:29.503Z,11.05
2023-03-17T20:32:31.101Z,10.05
2023-03-17T20:37:32.714Z,14.20
2023-03-17T20:42:35.826Z,17.40
2023-03-17T20:47:37.750Z,21.48
2023-03-17T20:52:39.659Z,19.98
2023-03-17T20:57:43.880Z,22.80
2023-03-17T21:02:45.859Z,11.25
2023-03-17T21:07:47.589Z,11.40
2023-03-17T21:12:53.012Z,9.68
2023-03-17T21:17:54.904Z,10.10
2023-03-17T21:22:56.574Z,11.00
2023-03-17T21:27:59.599Z,9.73
2023-03-17T21:33:01.336Z,10.43
2023-03-17T21:38:03.822Z,10.85
2023-03-17T21:43:06.717Z,20.15
2023-03-17T21:48:08.217Z,10.68
2023-03-17T21:53:12.612Z,9.35
2023-03-17T21:58:15.501Z,8.98
2023-03-17T22:03:17.899Z,10.00
2023-03-17T22:08:19.559Z,10.32
2023-03-17T22:13:22.490Z,9.75
2023-03-17T22:18:23.998Z,10.90
2023-03-17T22:23:26.624Z,18.80
2023-03-17T22:28:29.638Z,10.50
2023-03-17T22:33:31.234Z,10.15
2023-03-17T22:38:32.785Z,11.23
2023-03-17T22:43:36.248Z,8.93
2023-03-17T22:48:37.764Z,7.32
2023-03-17T22:53:40.258Z,10.13
2023-03-17T22:58:43.836Z,11.38
2023-03-17T23:03:45.766Z,7.32
2023-03-17T23:08:47.821Z,8.27
2023-03-17T23:13:51.814Z,4.97
2023-03-17T23:18:53.385Z,7.95
2023-03-17T23:23:55.572Z,6.93
2023-03-17T23:28:58.420Z,6.80
2023-03-17T23:34:00.351Z,8.57
2023-03-17T23:39:02.185Z,7.18
2023-03-17T23:44:05.171Z,6.10
2023-03-17T23:49:07.017Z,5.00
2023-03-17T23:54:08.510Z,4.78
2023-03-17T23:59:11.416Z,5.47
